Time;durP1;ratioP1;P1;durP2;ratioP2;P2;SDS_P1;SDS_P2;PMS_P1;PMS_P2;Temp;Humidity;BMP_temperature;BMP_pressure;BME280_temperature;BME280_humidity;BME280_pressure;Samples;Min_cycle;Max_cycle;Signal;HPM_P1;HPM_P2
2024/02/28 00:00:57;;;;;;;4.30;2.97;;;19.30;56.50;;;;;;5010343;28;20041;-49
2024/02/28 00:03:23;;;;;;;4.03;3.40;;;19.30;56.50;;;;;;5008584;28;20037;-50
2024/02/28 00:05:49;;;;;;;4.13;3.72;;;19.30;56.50;;;;;;5016570;28;20548;-53
2024/02/28 00:08:15;;;;;;;3.92;3.05;;;19.30;56.60;;;;;;5000079;28;20475;-52
2024/02/28 00:10:40;;;;;;;3.45;3.05;;;19.30;56.60;;;;;;5009791;28;20116;-50
2024/02/28 00:13:06;;;;;;;3.65;3.28;;;19.30;56.60;;;;;;5010808;28;20026;-48
2024/02/28 00:15:31;;;;;;;3.20;2.90;;;19.20;56.50;;;;;;5014665;28;20026;-50
2024/02/28 00:17:57;;;;;;;3.85;3.45;;;19.30;56.50;;;;;;5011615;28;20406;-52
2024/02/28 00:20:27;;;;;;;4.10;2.97;;;19.30;56.50;;;;;;5012975;28;20105;-53
2024/02/28 00:22:52;;;;;;;3.35;2.90;;;19.30;56.60;;;;;;5012846;28;20022;-51
2024/02/28 00:25:18;;;;;;;3.38;2.97;;;19.30;56.50;;;;;;5013407;28;20034;-49
2024/02/28 00:27:43;;;;;;;3.88;3.25;;;19.20;56.40;;;;;;5014490;28;20045;-52
2024/02/28 00:30:09;;;;;;;3.25;2.95;;;19.30;56.50;;;;;;5011468;28;20063;-50
2024/02/28 00:32:35;;;;;;;3.75;3.03;;;19.30;56.50;;;;;;5013058;28;20117;-52
2024/02/28 00:35:01;;;;;;;3.38;2.90;;;19.30;56.50;;;;;;5011547;28;20022;-50
2024/02/28 00:37:26;;;;;;;3.83;3.10;;;19.30;56.50;;;;;;5009183;28;20124;-48
2024/02/28 00:39:51;;;;;;;3.25;2.63;;;19.20;56.40;;;;;;5009625;28;20069;-52
2024/02/28 00:42:17;;;;;;;3.03;2.72;;;19.20;56.40;;;;;;5009224;28;20036;-53
2024/02/28 00:44:42;;;;;;;2.83;2.60;;;19.20;56.40;;;;;;5014170;28;20092;-48
2024/02/28 00:47:11;;;;;;;3.13;2.67;;;19.20;56.40;;;;;;5015161;28;20103;-50
2024/02/28 00:49:37;;;;;;;3.17;2.88;;;19.30;56.50;;;;;;5015809;28;20041;-52
2024/02/28 00:52:03;;;;;;;3.38;3.00;;;19.30;56.40;;;;;;5011868;28;20468;-48
2024/02/28 00:54:28;;;;;;;4.15;2.97;;;19.30;56.40;;;;;;5014296;28;20062;-49
2024/02/28 00:56:54;;;;;;;3.13;2.65;;;19.20;56.40;;;;;;5009359;28;20022;-52
2024/02/28 00:59:19;;;;;;;3.83;2.40;;;19.20;56.40;;;;;;5016309;28;20022;-53
2024/02/28 01:01:45;;;;;;;3.00;2.72;;;19.30;56.40;;;;;;5011139;28;20034;-49
2024/02/28 01:04:10;;;;;;;3.83;2.50;;;19.20;56.40;;;;;;5012652;28;20026;-50
2024/02/28 01:06:37;;;;;;;3.00;2.67;;;19.20;56.40;;;;;;5009649;28;20411;-54
2024/02/28 01:09:03;;;;;;;3.15;2.63;;;19.20;56.60;;;;;;5015861;28;20442;-51
2024/02/28 01:11:28;;;;;;;2.83;2.50;;;19.20;56.50;;;;;;5012348;28;20037;-53
2024/02/28 01:13:53;;;;;;;2.70;2.50;;;19.10;56.50;;;;;;5018385;28;20117;-53
2024/02/28 01:16:19;;;;;;;2.80;2.30;;;19.10;56.60;;;;;;5011473;28;20029;-48
2024/02/28 01:18:45;;;;;;;2.72;2.22;;;19.10;56.50;;;;;;5003079;28;20041;-51
2024/02/28 01:21:10;;;;;;;4.20;2.65;;;19.00;56.60;;;;;;5013097;28;20038;-47
2024/02/28 01:23:36;;;;;;;2.92;2.63;;;19.00;56.60;;;;;;5016017;28;20197;-53
2024/02/28 01:26:05;;;;;;;3.70;2.38;;;19.00;56.80;;;;;;5007724;28;20044;-48
2024/02/28 01:28:31;;;;;;;2.58;2.38;;;18.90;56.70;;;;;;5015917;28;20180;-48
2024/02/28 01:30:57;;;;;;;2.78;2.33;;;18.90;56.90;;;;;;5010145;28;20125;-52
2024/02/28 01:33:22;;;;;;;2.92;2.38;;;18.90;57.00;;;;;;5016308;28;20535;-51
2024/02/28 01:35:48;;;;;;;3.22;2.88;;;18.80;57.00;;;;;;5010835;28;20029;-50
2024/02/28 01:38:13;;;;;;;3.10;2.55;;;18.80;57.10;;;;;;5016423;28;20026;-47
2024/02/28 01:40:43;;;;;;;2.60;2.40;;;18.80;57.20;;;;;;5009778;28;20037;-54
2024/02/28 01:43:09;;;;;;;2.65;2.03;;;18.70;57.10;;;;;;5010176;28;20030;-55
2024/02/28 01:45:35;;;;;;;2.58;2.33;;;18.70;57.20;;;;;;5008931;28;20037;-53
2024/02/28 01:48:01;;;;;;;2.58;2.25;;;18.70;57.20;;;;;;5015937;28;20124;-51
2024/02/28 01:50:26;;;;;;;2.60;2.40;;;18.70;57.20;;;;;;5011892;28;20136;-48
2024/02/28 01:52:52;;;;;;;2.97;2.55;;;18.70;57.10;;;;;;5017149;28;20236;-48
2024/02/28 01:55:17;;;;;;;2.50;2.30;;;18.80;57.10;;;;;;5011078;28;20429;-51
2024/02/28 01:57:43;;;;;;;2.72;2.28;;;18.80;56.90;;;;;;5002415;28;20033;-54
2024/02/28 02:00:10;;;;;;;2.55;2.35;;;18.80;57.00;;;;;;5000457;28;20036;-51
2024/02/28 02:02:35;;;;;;;3.60;2.20;;;18.90;56.70;;;;;;5013815;28;20539;-54
2024/02/28 02:05:01;;;;;;;2.70;2.40;;;18.90;56.50;;;;;;5009166;28;20033;-48
2024/02/28 02:07:26;;;;;;;2.67;2.22;;;19.00;56.40;;;;;;5012970;28;20034;-49
2024/02/28 02:09:52;;;;;;;2.42;2.22;;;19.10;56.30;;;;;;5009232;28;20040;-52
2024/02/28 02:12:18;;;;;;;2.70;1.98;;;19.10;56.10;;;;;;5014042;28;20040;-49
2024/02/28 02:14:50;;;;;;;2.67;2.47;;;19.20;56.20;;;;;;5009893;28;20113;-52
2024/02/28 02:17:15;;;;;;;2.88;2.13;;;19.20;55.90;;;;;;5012021;28;20628;-50
2024/02/28 02:19:41;;;;;;;3.00;1.67;;;19.30;55.90;;;;;;5012122;28;20034;-47
2024/02/28 02:22:09;;;;;;;2.40;2.20;;;19.30;55.80;;;;;;5012817;28;20685;-52
2024/02/28 02:24:34;;;;;;;2.47;2.28;;;19.40;55.80;;;;;;5017641;28;20052;-52
2024/02/28 02:27:00;;;;;;;3.35;2.03;;;19.40;55.70;;;;;;5011817;28;20030;-55
2024/02/28 02:29:28;;;;;;;2.58;2.35;;;19.40;55.70;;;;;;5014459;28;20048;-53
2024/02/28 02:31:54;;;;;;;2.38;2.10;;;19.40;55.60;;;;;;5014907;28;20037;-51
2024/02/28 02:34:19;;;;;;;2.38;2.17;;;19.50;55.60;;;;;;5017311;28;20025;-48
2024/02/28 02:36:44;;;;;;;3.25;2.00;;;19.50;55.50;;;;;;5011811;28;20133;-53
2024/02/28 02:39:10;;;;;;;2.10;1.90;;;19.50;55.50;;;;;;5016329;28;20410;-54
2024/02/28 02:41:35;;;;;;;3.10;2.10;;;19.50;55.40;;;;;;5014175;28;20037;-50
2024/02/28 02:44:01;;;;;;;2.30;1.83;;;19.50;55.40;;;;;;5012687;28;20064;-48
2024/02/28 02:46:26;;;;;;;2.60;2.38;;;19.50;55.50;;;;;;5011537;28;20034;-50
2024/02/28 02:48:52;;;;;;;5.00;2.17;;;19.50;55.40;;;;;;5015041;28;20496;-53
2024/02/28 02:51:19;;;;;;;2.13;1.92;;;19.50;55.50;;;;;;5011838;28;20041;-53
2024/02/28 02:53:44;;;;;;;2.63;1.98;;;19.50;55.50;;;;;;5011536;28;20379;-54
2024/02/28 02:56:10;;;;;;;2.45;2.20;;;19.50;55.50;;;;;;5011987;28;20030;-51
2024/02/28 02:58:35;;;;;;;2.13;1.92;;;19.50;55.50;;;;;;5014084;28;20032;-48
2024/02/28 03:01:01;;;;;;;1.73;1.63;;;19.40;55.50;;;;;;5009676;28;20375;-49
2024/02/28 03:03:27;;;;;;;2.20;1.90;;;19.40;55.50;;;;;;5013209;28;20052;-54
2024/02/28 03:05:52;;;;;;;2.30;2.10;;;19.50;55.50;;;;;;5011883;28;20104;-50
2024/02/28 03:08:17;;;;;;;2.60;2.05;;;19.40;55.50;;;;;;5010394;28;20049;-50
2024/02/28 03:10:43;;;;;;;2.58;2.33;;;19.40;55.50;;;;;;5010554;28;20425;-53
2024/02/28 03:13:09;;;;;;;2.30;2.10;;;19.40;55.60;;;;;;5011242;28;20056;-50
2024/02/28 03:15:34;;;;;;;2.67;2.25;;;19.40;55.60;;;;;;5009836;28;20127;-50
2024/02/28 03:18:00;;;;;;;2.05;1.80;;;19.40;55.60;;;;;;5009717;28;20117;-50
2024/02/28 03:20:25;;;;;;;2.22;2.03;;;19.30;55.60;;;;;;5014129;28;21208;-49
2024/02/28 03:22:51;;;;;;;2.28;2.08;;;19.40;55.70;;;;;;5009062;28;20026;-50
2024/02/28 03:25:17;;;;;;;3.88;2.28;;;19.30;55.70;;;;;;5009396;28;20079;-51
2024/02/28 03:27:42;;;;;;;3.17;2.25;;;19.30;55.80;;;;;;5011944;28;20033;-49
2024/02/28 03:30:08;;;;;;;2.80;2.03;;;19.30;55.70;;;;;;5009978;28;20072;-50
2024/02/28 03:32:33;;;;;;;2.60;2.40;;;19.30;55.80;;;;;;5008182;28;20069;-53
2024/02/28 03:34:59;;;;;;;3.47;2.25;;;19.20;55.90;;;;;;5011690;28;21327;-51
2024/02/28 03:37:25;;;;;;;2.50;2.25;;;19.20;56.00;;;;;;5009523;28;20017;-49
2024/02/28 03:39:51;;;;;;;2.47;2.22;;;19.20;56.10;;;;;;5009205;28;20534;-50
2024/02/28 03:42:16;;;;;;;2.20;2.00;;;19.20;56.10;;;;;;5007865;28;20113;-50
2024/02/28 03:44:42;;;;;;;2.65;1.83;;;19.10;56.10;;;;;;5008745;28;20105;-49
2024/02/28 03:47:07;;;;;;;2.67;2.30;;;19.10;56.20;;;;;;5014826;28;20441;-49
2024/02/28 03:49:33;;;;;;;2.78;2.05;;;19.10;56.10;;;;;;5011073;28;20064;-50
2024/02/28 03:51:58;;;;;;;2.35;2.15;;;19.10;56.20;;;;;;5012004;28;20469;-50
2024/02/28 03:54:24;;;;;;;2.45;2.25;;;19.10;56.20;;;;;;5012464;28;20072;-49
2024/02/28 03:56:49;;;;;;;2.60;2.40;;;19.00;56.20;;;;;;5015273;28;20038;-50
2024/02/28 03:59:15;;;;;;;2.30;1.77;;;19.00;56.20;;;;;;5009347;28;20958;-49
2024/02/28 04:01:40;;;;;;;2.60;2.03;;;19.00;56.20;;;;;;5012077;28;20033;-48
2024/02/28 04:04:07;;;;;;;1.98;1.52;;;19.00;56.10;;;;;;5008709;28;20407;-49
2024/02/28 04:06:32;;;;;;;2.47;2.20;;;19.00;56.10;;;;;;5006449;28;20030;-50
2024/02/28 04:08:58;;;;;;;4.35;2.15;;;19.00;56.00;;;;;;5012507;28;20060;-51
2024/02/28 04:11:23;;;;;;;4.80;2.33;;;19.00;56.00;;;;;;5011225;28;20026;-58
2024/02/28 04:13:49;;;;;;;2.40;2.17;;;19.00;55.90;;;;;;5014913;28;20092;-52
2024/02/28 04:16:14;;;;;;;2.45;1.83;;;19.00;56.00;;;;;;5007287;28;20030;-50
2024/02/28 04:18:40;;;;;;;2.22;1.95;;;19.00;55.90;;;;;;5011429;28;20025;-50
2024/02/28 04:21:05;;;;;;;2.60;2.03;;;19.00;56.00;;;;;;5016302;28;20029;-51
2024/02/28 04:23:31;;;;;;;2.38;2.17;;;19.00;55.90;;;;;;5012434;28;20108;-50
2024/02/28 04:25:56;;;;;;;2.35;2.15;;;19.00;56.00;;;;;;4997819;28;20064;-49
2024/02/28 04:28:22;;;;;;;2.00;1.80;;;19.00;55.90;;;;;;5015790;28;20030;-50
2024/02/28 04:30:48;;;;;;;2.33;2.03;;;19.00;55.90;;;;;;5013061;28;20080;-53
2024/02/28 04:33:13;;;;;;;2.53;2.00;;;18.90;55.90;;;;;;5013404;28;20517;-50
2024/02/28 04:35:39;;;;;;;1.98;1.70;;;18.90;55.90;;;;;;5014292;28;20518;-50
2024/02/28 04:38:04;;;;;;;2.58;1.88;;;18.90;55.90;;;;;;5017494;28;20033;-51
2024/02/28 04:40:30;;;;;;;2.20;1.85;;;18.90;56.00;;;;;;5014297;28;20478;-51
2024/02/28 04:42:55;;;;;;;2.45;1.85;;;18.90;56.00;;;;;;5013018;28;20113;-52
2024/02/28 04:45:20;;;;;;;2.03;1.85;;;18.90;55.90;;;;;;5015469;28;20060;-54
2024/02/28 04:47:46;;;;;;;2.03;1.83;;;18.90;56.00;;;;;;5017148;28;20034;-56
2024/02/28 04:50:12;;;;;;;4.13;1.90;;;18.90;56.00;;;;;;5013285;28;20422;-50
2024/02/28 04:52:37;;;;;;;2.10;1.85;;;18.80;56.00;;;;;;5019250;28;20030;-50
2024/02/28 04:55:03;;;;;;;2.03;1.75;;;18.90;56.00;;;;;;5005838;28;20040;-55
2024/02/28 04:57:29;;;;;;;1.90;1.60;;;18.80;56.00;;;;;;5022264;28;20049;-54
2024/02/28 04:59:54;;;;;;;2.17;1.98;;;18.90;56.00;;;;;;5014779;28;20025;-55
2024/02/28 05:02:22;;;;;;;2.15;1.92;;;18.80;56.00;;;;;;5011696;28;20025;-49
2024/02/28 05:04:47;;;;;;;2.28;1.80;;;18.80;56.00;;;;;;5013564;28;20017;-53
2024/02/28 05:07:13;;;;;;;2.42;1.90;;;18.80;55.90;;;;;;5016094;28;20029;-52
2024/02/28 05:09:38;;;;;;;2.05;1.90;;;18.80;56.00;;;;;;5016068;28;20158;-51
2024/02/28 05:12:04;;;;;;;1.65;1.55;;;18.80;56.10;;;;;;5016289;28;20053;-51
2024/02/28 05:14:29;;;;;;;1.85;1.65;;;18.80;56.40;;;;;;5018864;28;20060;-57
2024/02/28 05:16:55;;;;;;;1.92;1.67;;;18.80;56.40;;;;;;5014035;28;20494;-53
2024/02/28 05:19:21;;;;;;;2.13;1.90;;;18.80;56.40;;;;;;5017347;28;20032;-49
2024/02/28 05:21:48;;;;;;;2.15;1.88;;;18.80;56.40;;;;;;5017122;28;20083;-54
2024/02/28 05:24:13;;;;;;;1.92;1.70;;;18.80;56.40;;;;;;5009834;28;20116;-53
2024/02/28 05:26:39;;;;;;;2.50;1.88;;;18.80;56.50;;;;;;5014773;28;20112;-50
2024/02/28 05:29:05;;;;;;;2.72;2.00;;;18.80;56.40;;;;;;5012470;28;20045;-49
2024/02/28 05:31:34;;;;;;;2.03;1.75;;;18.80;56.50;;;;;;5016282;28;20116;-52
2024/02/28 05:34:01;;;;;;;2.47;2.10;;;18.80;56.50;;;;;;5004156;28;20037;-53
2024/02/28 05:36:29;;;;;;;4.05;2.00;;;18.80;56.30;;;;;;4995126;28;20040;-50
2024/02/28 05:38:55;;;;;;;2.42;2.22;;;18.80;56.10;;;;;;5016370;28;20036;-56
2024/02/28 05:41:21;;;;;;;3.10;2.15;;;18.80;55.90;;;;;;5018303;28;20062;-48
2024/02/28 05:43:47;;;;;;;2.38;2.17;;;18.90;56.30;;;;;;5010255;28;20064;-49
2024/02/28 05:46:14;;;;;;;2.53;2.33;;;18.80;56.20;;;;;;5011513;28;20518;-50
2024/02/28 05:48:43;;;;;;;2.90;2.20;;;18.80;56.30;;;;;;5011563;28;20691;-52
2024/02/28 05:51:08;;;;;;;3.15;2.50;;;18.80;56.30;;;;;;5012434;28;20503;-52
2024/02/28 05:53:35;;;;;;;3.90;2.70;;;18.80;56.30;;;;;;5000137;28;20050;-51
2024/02/28 05:56:05;;;;;;;4.07;3.03;;;18.80;56.20;;;;;;5015229;28;20106;-55
2024/02/28 05:58:30;;;;;;;8.68;3.13;;;18.90;56.10;;;;;;5017636;28;20104;-50
2024/02/28 06:00:57;;;;;;;5.10;3.17;;;19.00;55.90;;;;;;5016707;28;20053;-55
2024/02/28 06:03:22;;;;;;;6.85;3.20;;;19.00;56.00;;;;;;5017751;28;20486;-57
2024/02/28 06:05:48;;;;;;;7.40;3.40;;;19.00;56.00;;;;;;5008996;28;20037;-53
2024/02/28 06:08:14;;;;;;;5.50;3.03;;;19.00;56.00;;;;;;5011750;28;20669;-53
2024/02/28 06:10:42;;;;;;;6.53;3.47;;;19.00;55.90;;;;;;5009539;28;20056;-50
2024/02/28 06:13:07;;;;;;;6.60;3.15;;;19.00;55.80;;;;;;5002423;28;20025;-54
2024/02/28 06:15:33;;;;;;;3.80;2.90;;;19.10;55.80;;;;;;5009757;28;20041;-57
2024/02/28 06:18:01;;;;;;;5.45;2.90;;;19.10;55.70;;;;;;5011404;28;20675;-51
2024/02/28 06:20:27;;;;;;;5.95;2.88;;;19.10;55.70;;;;;;5011690;28;20037;-50
2024/02/28 06:22:53;;;;;;;5.45;3.00;;;19.10;55.70;;;;;;5014643;28;20055;-52
2024/02/28 06:25:22;;;;;;;4.55;3.03;;;19.10;55.60;;;;;;5012300;28;20133;-53
2024/02/28 06:27:47;;;;;;;5.10;3.30;;;19.20;55.50;;;;;;5009923;28;20036;-50
2024/02/28 06:30:13;;;;;;;3.75;3.05;;;19.20;55.60;;;;;;5011064;28;20038;-50
2024/02/28 06:32:38;;;;;;;5.65;3.60;;;19.20;55.40;;;;;;5011018;28;20159;-51
2024/02/28 06:35:05;;;;;;;4.90;3.15;;;19.20;55.70;;;;;;5009673;28;20026;-50
2024/02/28 06:37:30;;;;;;;5.00;2.83;;;19.20;55.70;;;;;;5008654;28;20074;-55
2024/02/28 06:39:56;;;;;;;4.43;2.97;;;19.20;55.80;;;;;;5010837;28;20113;-50
2024/02/28 06:42:21;;;;;;;6.55;2.92;;;19.10;55.80;;;;;;5009579;28;20676;-51
2024/02/28 06:44:47;;;;;;;4.50;2.85;;;19.10;55.80;;;;;;5008592;28;20395;-51
2024/02/28 06:47:12;;;;;;;4.47;2.60;;;19.10;55.90;;;;;;5007966;28;20026;-49
2024/02/28 06:49:37;;;;;;;5.03;3.15;;;19.10;55.80;;;;;;5007884;28;20026;-51
2024/02/28 06:52:03;;;;;;;6.00;3.42;;;19.10;55.90;;;;;;5010365;28;20105;-51
2024/02/28 06:54:29;;;;;;;5.10;3.40;;;19.10;55.80;;;;;;5018693;28;20483;-53
2024/02/28 06:56:55;;;;;;;5.18;2.92;;;19.10;56.40;;;;;;5010199;28;20159;-50
2024/02/28 06:59:20;;;;;;;6.47;3.47;;;19.10;55.70;;;;;;5012746;28;20541;-51
2024/02/28 07:01:46;;;;;;;7.18;3.42;;;19.10;55.80;;;;;;5002127;28;20034;-49
2024/02/28 07:04:12;;;;;;;6.60;3.28;;;19.10;55.90;;;;;;5009621;28;20052;-49
2024/02/28 07:06:37;;;;;;;7.57;3.20;;;19.10;55.90;;;;;;5010892;28;20558;-51
2024/02/28 07:09:03;;;;;;;6.72;3.65;;;19.10;55.70;;;;;;5015785;28;20033;-50
2024/02/28 07:11:28;;;;;;;7.30;3.80;;;19.10;55.80;;;;;;5006590;28;20100;-50
2024/02/28 07:13:54;;;;;;;11.80;4.88;;;19.10;55.90;;;;;;5002677;28;20029;-50
2024/02/28 07:16:19;;;;;;;4.50;3.38;;;19.00;56.00;;;;;;5003824;28;20571;-50
2024/02/28 07:18:45;;;;;;;5.95;3.63;;;19.00;56.20;;;;;;5013101;28;20049;-51
2024/02/28 07:21:10;;;;;;;5.90;3.55;;;18.90;56.20;;;;;;5005390;28;20033;-51
2024/02/28 07:23:40;;;;;;;5.68;3.92;;;18.90;56.40;;;;;;5011095;28;20136;-54
2024/02/28 07:26:06;;;;;;;5.68;3.55;;;18.80;56.40;;;;;;5008354;28;20052;-50
2024/02/28 07:28:31;;;;;;;5.97;3.60;;;18.80;56.50;;;;;;5000194;28;20499;-49
2024/02/28 07:30:57;;;;;;;5.35;3.25;;;18.80;56.50;;;;;;5014189;28;20049;-51
2024/02/28 07:33:22;;;;;;;5.38;3.58;;;18.80;56.60;;;;;;5013695;28;20053;-49
2024/02/28 07:35:49;;;;;;;7.10;3.08;;;18.80;56.60;;;;;;5008798;28;20041;-51
2024/02/28 07:38:17;;;;;;;4.82;2.92;;;18.70;56.70;;;;;;5011914;28;20053;-50
2024/02/28 07:40:43;;;;;;;6.13;3.22;;;18.70;56.70;;;;;;5009204;28;20055;-50
2024/02/28 07:43:08;;;;;;;5.53;3.75;;;18.80;57.10;;;;;;4989046;28;20033;-50
2024/02/28 07:45:34;;;;;;;14.32;4.88;;;18.80;56.50;;;;;;4989729;28;20036;-51
2024/02/28 07:48:00;;;;;;;5.75;4.05;;;18.80;56.60;;;;;;5008600;28;20061;-52
2024/02/28 07:50:26;;;;;;;8.02;4.90;;;18.80;57.20;;;;;;5006675;28;20124;-50
2024/02/28 07:52:55;;;;;;;7.25;3.90;;;18.80;56.60;;;;;;5003370;28;21550;-51
2024/02/28 07:55:22;;;;;;;8.63;4.70;;;18.90;56.60;;;;;;5015835;28;20038;-50
2024/02/28 07:57:50;;;;;;;9.02;5.00;;;18.80;56.60;;;;;;5010420;28;20041;-50
2024/02/28 08:00:18;;;;;;;8.77;5.07;;;18.80;56.60;;;;;;5000687;28;20029;-49
2024/02/28 08:02:44;;;;;;;11.27;5.10;;;18.80;56.60;;;;;;5012884;28;20038;-49
2024/02/28 08:05:10;;;;;;;9.07;4.88;;;18.90;56.60;;;;;;5009600;28;20433;-50
2024/02/28 08:07:36;;;;;;;14.70;4.63;;;18.90;56.70;;;;;;5012499;28;20033;-49
2024/02/28 08:10:02;;;;;;;7.43;4.95;;;18.80;56.70;;;;;;5012896;28;20510;-55
2024/02/28 08:12:27;;;;;;;6.25;4.40;;;18.80;56.60;;;;;;5011197;28;20065;-48
2024/02/28 08:14:53;;;;;;;7.60;4.70;;;18.80;56.60;;;;;;5010320;28;20037;-53
2024/02/28 08:17:18;;;;;;;7.13;4.25;;;18.90;56.70;;;;;;5009672;28;20034;-53
2024/02/28 08:19:44;;;;;;;8.98;4.75;;;18.80;56.70;;;;;;5006194;28;20036;-47
2024/02/28 08:22:10;;;;;;;9.07;4.57;;;18.90;56.80;;;;;;5011703;28;20505;-53
2024/02/28 08:24:37;;;;;;;7.55;4.65;;;18.90;56.70;;;;;;4992509;28;20033;-47
2024/02/28 08:27:02;;;;;;;5.43;3.97;;;18.90;56.70;;;;;;5006709;28;20057;-48
2024/02/28 08:29:28;;;;;;;6.63;4.63;;;18.90;56.70;;;;;;5008540;28;21101;-49
2024/02/28 08:31:53;;;;;;;5.55;4.18;;;18.90;56.70;;;;;;5009388;28;20072;-53
2024/02/28 08:34:19;;;;;;;6.38;4.13;;;18.90;56.60;;;;;;5006238;28;20479;-55
2024/02/28 08:36:44;;;;;;;7.25;4.15;;;18.90;56.60;;;;;;5016615;28;20045;-48
2024/02/28 08:39:11;;;;;;;4.88;3.78;;;18.90;56.60;;;;;;5008044;28;20057;-50
2024/02/28 08:41:36;;;;;;;6.55;4.20;;;18.90;56.60;;;;;;5011032;28;20040;-48
2024/02/28 08:44:02;;;;;;;6.20;4.50;;;18.90;56.70;;;;;;5011854;28;20037;-50
2024/02/28 08:46:27;;;;;;;6.15;4.30;;;18.90;56.70;;;;;;5010702;28;20490;-51
2024/02/28 08:48:53;;;;;;;6.80;4.57;;;18.90;56.70;;;;;;5009340;28;20037;-46
2024/02/28 08:51:18;;;;;;;4.75;4.05;;;18.90;56.70;;;;;;5013217;28;20034;-47
2024/02/28 08:53:44;;;;;;;6.38;4.05;;;18.90;56.70;;;;;;5007130;28;20038;-50
2024/02/28 08:56:09;;;;;;;5.82;4.25;;;18.90;56.90;;;;;;5010910;28;20081;-55
2024/02/28 08:58:35;;;;;;;5.57;3.83;;;18.80;56.80;;;;;;5014107;28;20052;-48
2024/02/28 09:01:00;;;;;;;5.82;4.32;;;18.80;56.80;;;;;;5015267;28;20033;-52
2024/02/28 09:03:26;;;;;;;5.85;4.05;;;18.80;56.90;;;;;;5009084;28;20030;-54
2024/02/28 09:05:52;;;;;;;5.97;3.80;;;18.80;56.90;;;;;;5010863;28;20053;-46
2024/02/28 09:08:18;;;;;;;8.02;3.75;;;18.80;56.90;;;;;;5013988;28;20033;-52
2024/02/28 09:10:43;;;;;;;8.55;4.25;;;18.90;56.90;;;;;;5009391;28;20033;-48
2024/02/28 09:13:10;;;;;;;5.88;4.15;;;18.90;56.90;;;;;;5011826;28;20090;-54
2024/02/28 09:15:35;;;;;;;6.55;3.85;;;18.90;56.90;;;;;;5009879;28;20173;-55
2024/02/28 09:18:01;;;;;;;5.13;3.45;;;18.90;56.80;;;;;;5005101;28;20129;-51
2024/02/28 09:20:26;;;;;;;4.85;3.75;;;18.90;56.80;;;;;;5002576;28;20036;-55
2024/02/28 09:22:52;;;;;;;6.00;4.30;;;18.90;56.80;;;;;;5009789;28;20037;-50
2024/02/28 09:25:18;;;;;;;5.25;3.90;;;18.90;56.80;;;;;;5008359;28;20033;-51
2024/02/28 09:27:44;;;;;;;5.88;4.30;;;18.90;57.50;;;;;;5016565;28;20518;-51
2024/02/28 09:30:09;;;;;;;5.45;3.90;;;18.90;56.90;;;;;;5012706;28;20042;-51
2024/02/28 09:32:35;;;;;;;4.05;3.65;;;18.90;56.80;;;;;;5011976;28;20095;-50
2024/02/28 09:35:04;;;;;;;4.55;3.33;;;18.90;56.80;;;;;;5009103;28;20034;-54
2024/02/28 09:37:29;;;;;;;4.38;3.53;;;18.90;56.70;;;;;;5016699;28;20036;-50
2024/02/28 09:39:55;;;;;;;4.70;3.40;;;19.00;56.70;;;;;;5013231;28;20084;-54
2024/02/28 09:42:20;;;;;;;3.80;3.33;;;19.00;56.70;;;;;;5014489;28;20033;-47
2024/02/28 09:44:46;;;;;;;4.68;3.42;;;19.00;56.60;;;;;;5010925;28;20104;-47
2024/02/28 09:47:12;;;;;;;3.78;3.28;;;19.00;56.50;;;;;;5016644;28;20048;-50
2024/02/28 09:49:38;;;;;;;4.68;3.72;;;19.00;56.40;;;;;;5013694;28;20033;-48
2024/02/28 09:52:04;;;;;;;4.78;3.70;;;19.00;56.30;;;;;;5014893;28;20030;-53
2024/02/28 09:54:29;;;;;;;4.65;3.97;;;19.10;56.20;;;;;;5010181;28;20033;-50
2024/02/28 09:56:55;;;;;;;5.25;3.42;;;19.10;56.10;;;;;;5018506;28;20040;-51
2024/02/28 09:59:23;;;;;;;3.63;3.33;;;19.10;56.10;;;;;;5013779;28;20687;-52
2024/02/28 10:01:57;;;;;;;4.22;3.83;;;19.10;56.10;;;;;;4999198;28;20041;-46
2024/02/28 10:04:25;;;;;;;5.28;3.65;;;19.10;56.10;;;;;;5009544;28;20096;-48
2024/02/28 10:06:50;;;;;;;5.85;3.55;;;19.20;56.00;;;;;;5017393;28;20041;-47
2024/02/28 10:09:16;;;;;;;5.47;4.05;;;19.20;56.10;;;;;;5010496;28;21704;-50
2024/02/28 10:11:44;;;;;;;4.93;3.80;;;19.10;56.00;;;;;;5011420;28;20045;-55
2024/02/28 10:14:09;;;;;;;4.72;3.67;;;19.20;56.00;;;;;;5010174;28;20052;-49
2024/02/28 10:16:35;;;;;;;3.95;3.55;;;19.10;55.90;;;;;;5008959;28;20053;-50
2024/02/28 10:19:00;;;;;;;4.53;3.75;;;19.10;55.90;;;;;;5009585;28;20446;-47
2024/02/28 10:21:26;;;;;;;4.45;4.05;;;19.10;55.90;;;;;;5011749;28;20033;-54
2024/02/28 10:23:52;;;;;;;6.05;4.40;;;19.10;56.00;;;;;;5011248;28;20128;-50
2024/02/28 10:26:17;;;;;;;4.45;3.70;;;19.10;55.90;;;;;;4978844;28;20553;-48
2024/02/28 10:28:45;;;;;;;4.68;4.10;;;19.00;55.90;;;;;;5013099;28;20032;-51
2024/02/28 10:31:12;;;;;;;6.13;4.72;;;19.00;56.10;;;;;;5046866;23;20048;-49
2024/02/28 10:33:37;;;;;;;4.55;3.97;;;19.00;56.20;;;;;;5052337;28;20032;-49
2024/02/28 10:36:04;;;;;;;5.57;4.43;;;19.00;56.20;;;;;;5019739;28;20619;-53
2024/02/28 10:38:35;;;;;;;4.45;4.05;;;18.90;56.20;;;;;;5030677;28;20061;-51
2024/02/28 10:41:02;;;;;;;5.93;3.67;;;18.90;56.30;;;;;;5033952;28;20033;-49
2024/02/28 10:43:31;;;;;;;4.47;3.88;;;18.90;56.20;;;;;;5030700;28;20094;-50
2024/02/28 10:45:58;;;;;;;4.80;4.30;;;18.90;56.20;;;;;;5036744;28;20187;-54
2024/02/28 10:48:24;;;;;;;4.50;4.00;;;18.90;56.10;;;;;;5032162;28;20026;-51
2024/02/28 10:50:51;;;;;;;5.10;4.38;;;19.00;56.00;;;;;;5028351;28;20544;-50
2024/02/28 10:53:21;;;;;;;4.90;4.40;;;19.00;56.00;;;;;;5019206;28;20548;-49
2024/02/28 10:55:48;;;;;;;5.32;3.80;;;19.00;55.90;;;;;;5030102;28;20033;-47
2024/02/28 10:58:14;;;;;;;4.78;4.28;;;19.00;55.90;;;;;;5036594;28;20038;-51
2024/02/28 11:00:43;;;;;;;5.30;4.15;;;19.00;55.80;;;;;;5015439;28;20044;-49
2024/02/28 11:03:10;;;;;;;4.70;4.05;;;19.10;55.90;;;;;;5032501;28;20501;-50
2024/02/28 11:05:38;;;;;;;4.57;3.97;;;19.10;55.90;;;;;;5033528;28;20536;-50
2024/02/28 11:08:24;;;;;;;5.00;4.22;;;19.10;55.90;;;;;;5040251;28;20029;-51
2024/02/28 11:10:57;;;;;;;4.15;3.75;;;19.10;55.90;;;;;;5033797;28;20110;-48
2024/02/28 11:13:27;;;;;;;4.25;3.78;;;19.10;55.80;;;;;;5029507;28;20037;-49
2024/02/28 11:15:55;;;;;;;5.45;4.07;;;19.10;55.70;;;;;;5039035;28;20037;-51
2024/02/28 11:18:21;;;;;;;4.93;4.35;;;19.20;55.70;;;;;;5029252;28;20036;-51
2024/02/28 11:20:48;;;;;;;4.38;3.65;;;19.20;55.50;;;;;;5033772;28;20029;-50
2024/02/28 11:23:14;;;;;;;4.53;4.05;;;19.20;55.50;;;;;;5033413;28;20033;-50
2024/02/28 11:25:40;;;;;;;5.03;4.35;;;19.20;55.50;;;;;;5030002;28;20036;-51
2024/02/28 11:28:06;;;;;;;5.70;4.22;;;19.30;55.50;;;;;;5033365;28;20432;-50
2024/02/28 11:30:32;;;;;;;4.82;4.28;;;19.30;55.50;;;;;;5034872;28;20033;-48
2024/02/28 11:32:58;;;;;;;4.65;4.15;;;19.30;55.40;;;;;;5038257;28;20033;-51
2024/02/28 11:35:28;;;;;;;5.10;4.47;;;19.40;55.40;;;;;;5036077;28;20431;-50
2024/02/28 11:37:57;;;;;;;5.85;4.57;;;19.30;55.40;;;;;;5033428;28;20037;-51
2024/02/28 11:40:26;;;;;;;5.13;4.40;;;19.30;55.20;;;;;;5034563;28;20083;-48
2024/02/28 11:42:53;;;;;;;4.97;4.47;;;19.40;55.30;;;;;;5030043;28;20389;-48
2024/02/28 11:45:19;;;;;;;5.55;5.03;;;19.30;55.20;;;;;;5038863;28;20071;-49
2024/02/28 11:47:45;;;;;;;5.25;4.70;;;19.40;55.30;;;;;;5033119;28;20115;-51
2024/02/28 11:50:11;;;;;;;4.97;4.13;;;19.40;55.10;;;;;;5033504;28;20490;-51
2024/02/28 11:52:37;;;;;;;4.72;4.22;;;19.40;55.20;;;;;;5011797;28;20033;-49
2024/02/28 11:55:03;;;;;;;4.93;4.40;;;19.40;55.20;;;;;;5036017;28;20116;-49
2024/02/28 11:57:30;;;;;;;4.70;4.18;;;19.40;55.30;;;;;;5015779;28;20386;-49
2024/02/28 11:59:56;;;;;;;5.38;4.80;;;19.40;55.10;;;;;;5017018;28;20034;-48
2024/02/28 12:02:26;;;;;;;5.18;4.53;;;19.40;55.10;;;;;;5037482;28;20417;-48
2024/02/28 12:04:54;;;;;;;6.07;5.47;;;19.40;55.10;;;;;;5031778;28;20171;-49
2024/02/28 12:07:19;;;;;;;5.68;5.00;;;19.40;55.10;;;;;;5028868;28;20033;-51
2024/02/28 12:09:48;;;;;;;5.05;4.55;;;19.40;55.10;;;;;;5029423;28;20041;-51
2024/02/28 12:12:14;;;;;;;5.28;4.68;;;19.40;55.10;;;;;;5033687;28;20506;-49
2024/02/28 12:14:40;;;;;;;6.00;4.35;;;19.40;55.10;;;;;;5033172;28;20040;-48
2024/02/28 12:17:05;;;;;;;6.07;4.75;;;19.40;55.20;;;;;;5033847;28;20025;-50
2024/02/28 12:19:30;;;;;;;5.50;4.47;;;19.40;55.20;;;;;;5037637;28;20393;-47
2024/02/28 12:21:57;;;;;;;5.15;4.65;;;19.40;55.30;;;;;;5029204;28;20079;-49
2024/02/28 12:24:23;;;;;;;5.65;4.70;;;19.40;55.30;;;;;;5033796;28;20037;-51
2024/02/28 12:26:48;;;;;;;5.68;4.82;;;19.40;55.30;;;;;;5032142;28;20367;-50
2024/02/28 12:29:14;;;;;;;5.55;4.68;;;19.40;55.30;;;;;;5037394;28;20078;-51
2024/02/28 12:31:39;;;;;;;5.38;3.90;;;19.40;55.40;;;;;;5029870;28;20038;-51
2024/02/28 12:34:05;;;;;;;5.50;4.90;;;19.40;55.50;;;;;;5032778;28;20120;-48
2024/02/28 12:36:32;;;;;;;6.25;4.57;;;19.40;55.60;;;;;;5032820;28;20121;-50
2024/02/28 12:38:59;;;;;;;5.20;4.60;;;19.40;55.70;;;;;;5033919;28;20441;-49